sensor_id;sensor_type;location;lat;lon;timestamp;P1;durP1;ratioP1;P2;durP2;ratioP2
76675;SDS011;69204;55.350;36.906;2023-06-14T00:04:49;19.50;;;9.73;;
76675;SDS011;69204;55.350;36.906;2023-06-14T00:09:52;21.83;;;9.05;;
76675;SDS011;69204;55.350;36.906;2023-06-14T00:14:53;22.50;;;9.55;;
76675;SDS011;69204;55.350;36.906;2023-06-14T00:19:54;25.02;;;11.55;;
76675;SDS011;69204;55.350;36.906;2023-06-14T00:24:57;21.70;;;9.93;;
76675;SDS011;69204;55.350;36.906;2023-06-14T00:29:58;31.50;;;12.00;;
76675;SDS011;69204;55.350;36.906;2023-06-14T00:34:58;21.58;;;9.00;;
76675;SDS011;69204;55.350;36.906;2023-06-14T00:39:59;17.50;;;8.13;;
76675;SDS011;69204;55.350;36.906;2023-06-14T00:45:00;21.33;;;9.60;;
76675;SDS011;69204;55.350;36.906;2023-06-14T00:50:01;20.13;;;8.63;;
76675;SDS011;69204;55.350;36.906;2023-06-14T00:55:03;23.77;;;9.48;;
76675;SDS011;69204;55.350;36.906;2023-06-14T01:00:05;24.33;;;9.67;;
76675;SDS011;69204;55.350;36.906;2023-06-14T01:05:10;22.00;;;9.35;;
76675;SDS011;69204;55.350;36.906;2023-06-14T01:10:23;23.55;;;9.07;;
76675;SDS011;69204;55.350;36.906;2023-06-14T01:15:36;21.20;;;9.60;;
76675;SDS011;69204;55.350;36.906;2023-06-14T01:20:38;17.35;;;9.70;;
76675;SDS011;69204;55.350;36.906;2023-06-14T01:25:39;20.97;;;9.73;;
76675;SDS011;69204;55.350;36.906;2023-06-14T01:30:41;20.48;;;10.95;;
76675;SDS011;69204;55.350;36.906;2023-06-14T01:35:49;17.02;;;9.25;;
76675;SDS011;69204;55.350;36.906;2023-06-14T01:40:51;16.88;;;10.00;;
76675;SDS011;69204;55.350;36.906;2023-06-14T01:45:53;19.85;;;9.35;;
76675;SDS011;69204;55.350;36.906;2023-06-14T01:50:56;16.83;;;8.87;;
76675;SDS011;69204;55.350;36.906;2023-06-14T01:55:57;19.48;;;8.23;;
76675;SDS011;69204;55.350;36.906;2023-06-14T02:00:58;13.63;;;7.90;;
76675;SDS011;69204;55.350;36.906;2023-06-14T02:06:02;17.43;;;8.80;;
76675;SDS011;69204;55.350;36.906;2023-06-14T02:11:04;14.13;;;8.63;;
76675;SDS011;69204;55.350;36.906;2023-06-14T02:16:05;13.20;;;8.80;;
76675;SDS011;69204;55.350;36.906;2023-06-14T02:21:06;14.88;;;9.48;;
76675;SDS011;69204;55.350;36.906;2023-06-14T02:26:07;14.97;;;9.17;;
76675;SDS011;69204;55.350;36.906;2023-06-14T02:31:08;15.13;;;9.80;;
76675;SDS011;69204;55.350;36.906;2023-06-14T02:36:09;16.65;;;9.38;;
76675;SDS011;69204;55.350;36.906;2023-06-14T02:41:10;20.20;;;12.37;;
76675;SDS011;69204;55.350;36.906;2023-06-14T02:46:10;22.13;;;11.30;;
76675;SDS011;69204;55.350;36.906;2023-06-14T02:51:11;22.70;;;11.57;;
76675;SDS011;69204;55.350;36.906;2023-06-14T02:56:13;17.30;;;10.80;;
76675;SDS011;69204;55.350;36.906;2023-06-14T03:01:14;15.97;;;10.80;;
76675;SDS011;69204;55.350;36.906;2023-06-14T03:06:14;20.08;;;11.73;;
76675;SDS011;69204;55.350;36.906;2023-06-14T03:11:17;19.13;;;11.57;;
76675;SDS011;69204;55.350;36.906;2023-06-14T03:16:20;22.08;;;10.68;;
76675;SDS011;69204;55.350;36.906;2023-06-14T03:21:22;16.05;;;9.82;;
76675;SDS011;69204;55.350;36.906;2023-06-14T03:26:23;17.70;;;9.63;;
76675;SDS011;69204;55.350;36.906;2023-06-14T03:31:25;18.98;;;9.00;;
76675;SDS011;69204;55.350;36.906;2023-06-14T03:36:26;13.27;;;7.93;;
76675;SDS011;69204;55.350;36.906;2023-06-14T03:41:28;15.60;;;8.57;;
76675;SDS011;69204;55.350;36.906;2023-06-14T03:46:29;15.87;;;7.97;;
76675;SDS011;69204;55.350;36.906;2023-06-14T03:51:30;13.27;;;7.28;;
76675;SDS011;69204;55.350;36.906;2023-06-14T03:56:31;12.10;;;7.22;;
76675;SDS011;69204;55.350;36.906;2023-06-14T04:01:32;14.70;;;7.40;;
76675;SDS011;69204;55.350;36.906;2023-06-14T04:06:34;11.93;;;7.88;;
76675;SDS011;69204;55.350;36.906;2023-06-14T04:11:35;10.10;;;7.23;;
76675;SDS011;69204;55.350;36.906;2023-06-14T04:16:36;17.73;;;7.10;;
76675;SDS011;69204;55.350;36.906;2023-06-14T04:21:37;9.90;;;6.60;;
76675;SDS011;69204;55.350;36.906;2023-06-14T04:26:41;17.90;;;6.97;;
76675;SDS011;69204;55.350;36.906;2023-06-14T04:31:45;10.55;;;6.32;;
76675;SDS011;69204;55.350;36.906;2023-06-14T04:36:47;11.57;;;5.90;;
76675;SDS011;69204;55.350;36.906;2023-06-14T04:41:53;11.43;;;5.63;;
76675;SDS011;69204;55.350;36.906;2023-06-14T04:46:57;10.77;;;5.80;;
76675;SDS011;69204;55.350;36.906;2023-06-14T04:51:59;9.25;;;6.13;;
76675;SDS011;69204;55.350;36.906;2023-06-14T04:57:02;9.50;;;6.40;;
76675;SDS011;69204;55.350;36.906;2023-06-14T05:02:04;15.77;;;6.93;;
76675;SDS011;69204;55.350;36.906;2023-06-14T05:07:17;10.40;;;6.45;;
76675;SDS011;69204;55.350;36.906;2023-06-14T05:12:18;6.28;;;4.07;;
76675;SDS011;69204;55.350;36.906;2023-06-14T05:17:19;11.60;;;4.20;;
76675;SDS011;69204;55.350;36.906;2023-06-14T05:22:21;9.07;;;4.30;;
76675;SDS011;69204;55.350;36.906;2023-06-14T05:27:22;10.88;;;3.67;;
76675;SDS011;69204;55.350;36.906;2023-06-14T05:32:25;8.20;;;3.70;;
76675;SDS011;69204;55.350;36.906;2023-06-14T05:37:26;9.88;;;4.10;;
76675;SDS011;69204;55.350;36.906;2023-06-14T05:42:27;8.65;;;3.40;;
76675;SDS011;69204;55.350;36.906;2023-06-14T05:47:28;10.00;;;3.20;;
76675;SDS011;69204;55.350;36.906;2023-06-14T05:52:29;7.95;;;3.88;;
76675;SDS011;69204;55.350;36.906;2023-06-14T05:57:30;6.73;;;2.70;;
76675;SDS011;69204;55.350;36.906;2023-06-14T06:02:31;7.07;;;3.20;;
76675;SDS011;69204;55.350;36.906;2023-06-14T06:07:32;9.07;;;3.13;;
76675;SDS011;69204;55.350;36.906;2023-06-14T06:12:33;6.72;;;2.90;;
76675;SDS011;69204;55.350;36.906;2023-06-14T06:17:34;6.88;;;2.80;;
76675;SDS011;69204;55.350;36.906;2023-06-14T06:22:35;9.93;;;3.20;;
76675;SDS011;69204;55.350;36.906;2023-06-14T06:27:36;5.72;;;2.95;;
76675;SDS011;69204;55.350;36.906;2023-06-14T06:32:40;11.53;;;3.30;;
76675;SDS011;69204;55.350;36.906;2023-06-14T06:37:41;5.73;;;2.70;;
76675;SDS011;69204;55.350;36.906;2023-06-14T06:42:43;6.43;;;2.80;;
76675;SDS011;69204;55.350;36.906;2023-06-14T06:47:44;6.80;;;3.13;;
76675;SDS011;69204;55.350;36.906;2023-06-14T06:52:45;8.73;;;3.25;;
76675;SDS011;69204;55.350;36.906;2023-06-14T06:57:46;6.43;;;2.60;;
76675;SDS011;69204;55.350;36.906;2023-06-14T07:02:47;6.33;;;3.10;;
76675;SDS011;69204;55.350;36.906;2023-06-14T07:07:48;6.25;;;3.53;;
76675;SDS011;69204;55.350;36.906;2023-06-14T07:12:49;7.57;;;3.53;;
76675;SDS011;69204;55.350;36.906;2023-06-14T07:17:50;7.40;;;3.50;;
76675;SDS011;69204;55.350;36.906;2023-06-14T07:22:52;9.88;;;3.63;;
76675;SDS011;69204;55.350;36.906;2023-06-14T07:27:54;9.07;;;3.60;;
76675;SDS011;69204;55.350;36.906;2023-06-14T07:32:56;8.65;;;3.60;;
76675;SDS011;69204;55.350;36.906;2023-06-14T07:37:58;5.47;;;3.10;;
76675;SDS011;69204;55.350;36.906;2023-06-14T07:42:59;8.83;;;3.63;;
76675;SDS011;69204;55.350;36.906;2023-06-14T07:48:02;13.07;;;5.07;;
76675;SDS011;69204;55.350;36.906;2023-06-14T07:53:04;12.77;;;3.73;;
76675;SDS011;69204;55.350;36.906;2023-06-14T07:58:06;9.48;;;3.38;;
76675;SDS011;69204;55.350;36.906;2023-06-14T08:03:08;8.52;;;3.40;;
76675;SDS011;69204;55.350;36.906;2023-06-14T08:08:10;6.80;;;3.40;;
76675;SDS011;69204;55.350;36.906;2023-06-14T08:13:12;6.80;;;3.67;;
76675;SDS011;69204;55.350;36.906;2023-06-14T08:18:14;7.93;;;3.67;;
76675;SDS011;69204;55.350;36.906;2023-06-14T08:23:16;9.57;;;3.30;;
76675;SDS011;69204;55.350;36.906;2023-06-14T08:28:20;7.07;;;3.80;;
76675;SDS011;69204;55.350;36.906;2023-06-14T08:33:21;7.90;;;4.13;;
76675;SDS011;69204;55.350;36.906;2023-06-14T08:38:23;12.48;;;3.88;;
76675;SDS011;69204;55.350;36.906;2023-06-14T08:43:25;9.45;;;3.85;;
76675;SDS011;69204;55.350;36.906;2023-06-14T08:48:27;12.10;;;4.33;;
76675;SDS011;69204;55.350;36.906;2023-06-14T08:53:32;11.55;;;4.25;;
76675;SDS011;69204;55.350;36.906;2023-06-14T08:58:34;9.07;;;4.00;;
76675;SDS011;69204;55.350;36.906;2023-06-14T09:03:37;8.77;;;3.58;;
76675;SDS011;69204;55.350;36.906;2023-06-14T09:08:44;13.15;;;4.35;;
76675;SDS011;69204;55.350;36.906;2023-06-14T09:13:48;11.57;;;3.93;;
76675;SDS011;69204;55.350;36.906;2023-06-14T09:18:51;10.68;;;3.97;;
76675;SDS011;69204;55.350;36.906;2023-06-14T09:23:52;8.85;;;4.03;;
76675;SDS011;69204;55.350;36.906;2023-06-14T09:28:54;14.50;;;4.33;;
76675;SDS011;69204;55.350;36.906;2023-06-14T09:33:56;12.00;;;4.60;;
76675;SDS011;69204;55.350;36.906;2023-06-14T09:38:58;8.00;;;4.23;;
76675;SDS011;69204;55.350;36.906;2023-06-14T09:44:02;13.97;;;4.00;;
76675;SDS011;69204;55.350;36.906;2023-06-14T09:49:05;11.32;;;4.18;;
76675;SDS011;69204;55.350;36.906;2023-06-14T09:54:07;11.30;;;4.03;;
76675;SDS011;69204;55.350;36.906;2023-06-14T09:59:10;9.02;;;3.67;;
76675;SDS011;69204;55.350;36.906;2023-06-14T10:04:13;7.63;;;3.72;;
76675;SDS011;69204;55.350;36.906;2023-06-14T10:09:15;11.50;;;4.30;;
76675;SDS011;69204;55.350;36.906;2023-06-14T10:14:17;10.57;;;3.80;;
76675;SDS011;69204;55.350;36.906;2023-06-14T10:19:20;9.77;;;3.65;;
76675;SDS011;69204;55.350;36.906;2023-06-14T10:24:28;8.63;;;4.20;;
76675;SDS011;69204;55.350;36.906;2023-06-14T10:29:31;7.30;;;4.00;;
76675;SDS011;69204;55.350;36.906;2023-06-14T10:34:32;11.30;;;4.37;;
76675;SDS011;69204;55.350;36.906;2023-06-14T10:39:43;10.75;;;3.97;;
76675;SDS011;69204;55.350;36.906;2023-06-14T10:49:56;10.53;;;4.37;;
76675;SDS011;69204;55.350;36.906;2023-06-14T10:55:15;8.82;;;4.10;;
76675;SDS011;69204;55.350;36.906;2023-06-14T11:00:22;10.90;;;4.57;;
76675;SDS011;69204;55.350;36.906;2023-06-14T11:05:25;12.40;;;4.60;;
76675;SDS011;69204;55.350;36.906;2023-06-14T11:15:38;9.70;;;3.73;;
76675;SDS011;69204;55.350;36.906;2023-06-14T11:20:40;6.88;;;3.88;;
76675;SDS011;69204;55.350;36.906;2023-06-14T11:25:41;11.70;;;3.60;;
76675;SDS011;69204;55.350;36.906;2023-06-14T11:30:42;10.10;;;3.63;;
76675;SDS011;69204;55.350;36.906;2023-06-14T11:35:43;7.45;;;3.97;;
76675;SDS011;69204;55.350;36.906;2023-06-14T11:40:44;8.20;;;3.75;;
76675;SDS011;69204;55.350;36.906;2023-06-14T11:45:47;7.00;;;3.63;;
76675;SDS011;69204;55.350;36.906;2023-06-14T11:50:50;11.13;;;4.55;;
76675;SDS011;69204;55.350;36.906;2023-06-14T11:55:52;9.37;;;4.23;;
76675;SDS011;69204;55.350;36.906;2023-06-14T12:00:53;8.30;;;3.90;;
76675;SDS011;69204;55.350;36.906;2023-06-14T12:11:13;10.73;;;4.40;;
76675;SDS011;69204;55.350;36.906;2023-06-14T12:16:16;8.90;;;4.10;;
76675;SDS011;69204;55.350;36.906;2023-06-14T12:21:16;8.30;;;4.30;;
76675;SDS011;69204;55.350;36.906;2023-06-14T12:26:19;12.87;;;4.40;;
76675;SDS011;69204;55.350;36.906;2023-06-14T12:31:20;9.05;;;4.20;;
76675;SDS011;69204;55.350;36.906;2023-06-14T12:36:22;7.13;;;4.10;;
76675;SDS011;69204;55.350;36.906;2023-06-14T12:41:23;11.87;;;3.93;;
76675;SDS011;69204;55.350;36.906;2023-06-14T12:46:25;8.90;;;4.38;;
76675;SDS011;69204;55.350;36.906;2023-06-14T12:51:26;8.63;;;4.27;;
76675;SDS011;69204;55.350;36.906;2023-06-14T12:56:27;14.97;;;4.43;;
76675;SDS011;69204;55.350;36.906;2023-06-14T13:01:28;14.15;;;4.10;;
76675;SDS011;69204;55.350;36.906;2023-06-14T13:06:29;12.93;;;4.27;;
76675;SDS011;69204;55.350;36.906;2023-06-14T13:11:31;11.38;;;3.95;;
76675;SDS011;69204;55.350;36.906;2023-06-14T13:16:32;13.82;;;4.55;;
76675;SDS011;69204;55.350;36.906;2023-06-14T13:21:33;12.10;;;4.40;;
76675;SDS011;69204;55.350;36.906;2023-06-14T13:26:34;6.65;;;3.85;;
76675;SDS011;69204;55.350;36.906;2023-06-14T13:31:36;9.40;;;4.28;;
76675;SDS011;69204;55.350;36.906;2023-06-14T13:36:37;10.20;;;4.10;;
76675;SDS011;69204;55.350;36.906;2023-06-14T13:41:38;12.48;;;4.65;;
76675;SDS011;69204;55.350;36.906;2023-06-14T13:46:39;8.73;;;4.13;;
76675;SDS011;69204;55.350;36.906;2023-06-14T13:51:42;10.02;;;4.20;;
76675;SDS011;69204;55.350;36.906;2023-06-14T13:56:43;16.38;;;8.15;;
76675;SDS011;69204;55.350;36.906;2023-06-14T14:01:45;10.67;;;4.30;;
76675;SDS011;69204;55.350;36.906;2023-06-14T14:06:46;10.95;;;4.45;;
76675;SDS011;69204;55.350;36.906;2023-06-14T14:11:47;10.43;;;4.43;;
76675;SDS011;69204;55.350;36.906;2023-06-14T14:16:49;10.60;;;4.47;;
76675;SDS011;69204;55.350;36.906;2023-06-14T14:21:52;8.38;;;3.95;;
76675;SDS011;69204;55.350;36.906;2023-06-14T14:27:05;7.32;;;4.32;;
76675;SDS011;69204;55.350;36.906;2023-06-14T14:32:07;7.73;;;3.80;;
76675;SDS011;69204;55.350;36.906;2023-06-14T14:37:11;8.75;;;4.55;;
76675;SDS011;69204;55.350;36.906;2023-06-14T14:42:13;10.40;;;4.60;;
76675;SDS011;69204;55.350;36.906;2023-06-14T14:47:14;9.30;;;4.23;;
76675;SDS011;69204;55.350;36.906;2023-06-14T14:52:15;9.35;;;4.13;;
76675;SDS011;69204;55.350;36.906;2023-06-14T14:57:16;7.77;;;4.30;;
76675;SDS011;69204;55.350;36.906;2023-06-14T15:02:17;9.38;;;4.75;;
76675;SDS011;69204;55.350;36.906;2023-06-14T15:07:30;9.00;;;4.78;;
76675;SDS011;69204;55.350;36.906;2023-06-14T15:12:34;8.47;;;4.30;;
76675;SDS011;69204;55.350;36.906;2023-06-14T15:17:36;5.95;;;3.70;;
76675;SDS011;69204;55.350;36.906;2023-06-14T15:22:37;9.83;;;4.43;;
76675;SDS011;69204;55.350;36.906;2023-06-14T15:27:38;8.50;;;4.03;;
76675;SDS011;69204;55.350;36.906;2023-06-14T15:32:39;13.63;;;4.90;;
76675;SDS011;69204;55.350;36.906;2023-06-14T15:37:40;11.83;;;4.57;;
76675;SDS011;69204;55.350;36.906;2023-06-14T15:42:41;11.02;;;4.70;;
76675;SDS011;69204;55.350;36.906;2023-06-14T15:47:42;9.38;;;5.47;;
76675;SDS011;69204;55.350;36.906;2023-06-14T15:52:43;9.83;;;5.00;;
76675;SDS011;69204;55.350;36.906;2023-06-14T15:57:44;9.10;;;4.97;;
76675;SDS011;69204;55.350;36.906;2023-06-14T16:02:57;8.53;;;4.63;;
76675;SDS011;69204;55.350;36.906;2023-06-14T16:07:58;8.70;;;3.97;;
76675;SDS011;69204;55.350;36.906;2023-06-14T16:12:59;10.13;;;4.57;;
76675;SDS011;69204;55.350;36.906;2023-06-14T16:18:00;9.60;;;4.53;;
76675;SDS011;69204;55.350;36.906;2023-06-14T16:23:13;8.70;;;4.30;;
76675;SDS011;69204;55.350;36.906;2023-06-14T16:28:15;13.07;;;4.93;;
76675;SDS011;69204;55.350;36.906;2023-06-14T16:33:16;10.77;;;4.43;;
76675;SDS011;69204;55.350;36.906;2023-06-14T16:38:17;10.55;;;4.68;;
76675;SDS011;69204;55.350;36.906;2023-06-14T16:43:19;12.55;;;4.20;;
76675;SDS011;69204;55.350;36.906;2023-06-14T16:48:20;9.93;;;4.10;;
76675;SDS011;69204;55.350;36.906;2023-06-14T16:53:21;12.52;;;4.45;;
76675;SDS011;69204;55.350;36.906;2023-06-14T16:58:22;9.13;;;4.40;;
76675;SDS011;69204;55.350;36.906;2023-06-14T17:03:23;7.90;;;4.55;;
76675;SDS011;69204;55.350;36.906;2023-06-14T17:08:36;8.57;;;4.13;;
76675;SDS011;69204;55.350;36.906;2023-06-14T17:13:37;8.33;;;4.10;;
76675;SDS011;69204;55.350;36.906;2023-06-14T17:18:38;9.02;;;4.50;;
76675;SDS011;69204;55.350;36.906;2023-06-14T17:23:40;10.47;;;4.43;;
76675;SDS011;69204;55.350;36.906;2023-06-14T17:28:55;8.73;;;4.43;;
76675;SDS011;69204;55.350;36.906;2023-06-14T17:33:56;14.13;;;5.20;;
76675;SDS011;69204;55.350;36.906;2023-06-14T17:38:57;14.97;;;4.83;;
76675;SDS011;69204;55.350;36.906;2023-06-14T17:43:58;13.88;;;5.20;;
76675;SDS011;69204;55.350;36.906;2023-06-14T17:48:59;12.43;;;4.80;;
76675;SDS011;69204;55.350;36.906;2023-06-14T17:54:00;8.03;;;4.60;;
76675;SDS011;69204;55.350;36.906;2023-06-14T17:59:01;7.60;;;4.75;;
76675;SDS011;69204;55.350;36.906;2023-06-14T18:04:11;14.43;;;5.20;;
76675;SDS011;69204;55.350;36.906;2023-06-14T18:09:12;13.55;;;5.07;;
76675;SDS011;69204;55.350;36.906;2023-06-14T18:14:18;13.43;;;5.43;;
76675;SDS011;69204;55.350;36.906;2023-06-14T18:19:34;15.60;;;5.23;;
76675;SDS011;69204;55.350;36.906;2023-06-14T18:24:37;11.27;;;5.40;;
76675;SDS011;69204;55.350;36.906;2023-06-14T18:29:38;14.63;;;5.00;;
76675;SDS011;69204;55.350;36.906;2023-06-14T18:34:39;13.63;;;5.45;;
76675;SDS011;69204;55.350;36.906;2023-06-14T18:39:40;13.60;;;6.13;;
76675;SDS011;69204;55.350;36.906;2023-06-14T18:44:41;22.83;;;8.83;;
76675;SDS011;69204;55.350;36.906;2023-06-14T18:49:42;18.30;;;8.30;;
76675;SDS011;69204;55.350;36.906;2023-06-14T18:54:43;17.20;;;7.63;;
76675;SDS011;69204;55.350;36.906;2023-06-14T18:59:45;30.40;;;12.45;;
76675;SDS011;69204;55.350;36.906;2023-06-14T19:04:47;21.55;;;9.48;;
76675;SDS011;69204;55.350;36.906;2023-06-14T19:09:48;17.00;;;7.97;;
76675;SDS011;69204;55.350;36.906;2023-06-14T19:14:49;19.45;;;9.65;;
76675;SDS011;69204;55.350;36.906;2023-06-14T19:19:50;19.17;;;10.10;;
76675;SDS011;69204;55.350;36.906;2023-06-14T19:24:51;33.22;;;14.98;;
76675;SDS011;69204;55.350;36.906;2023-06-14T19:29:52;34.13;;;12.50;;
76675;SDS011;69204;55.350;36.906;2023-06-14T19:34:53;18.70;;;10.03;;
76675;SDS011;69204;55.350;36.906;2023-06-14T19:39:54;22.27;;;10.05;;
76675;SDS011;69204;55.350;36.906;2023-06-14T19:44:55;26.77;;;11.73;;
76675;SDS011;69204;55.350;36.906;2023-06-14T19:49:57;20.75;;;11.23;;
76675;SDS011;69204;55.350;36.906;2023-06-14T19:54:58;33.47;;;14.07;;
76675;SDS011;69204;55.350;36.906;2023-06-14T19:59:59;48.33;;;20.60;;
76675;SDS011;69204;55.350;36.906;2023-06-14T20:05:13;43.90;;;18.75;;
76675;SDS011;69204;55.350;36.906;2023-06-14T20:10:14;33.20;;;15.20;;
76675;SDS011;69204;55.350;36.906;2023-06-14T20:15:14;33.67;;;15.48;;
76675;SDS011;69204;55.350;36.906;2023-06-14T20:20:15;43.10;;;18.52;;
76675;SDS011;69204;55.350;36.906;2023-06-14T20:25:16;34.63;;;16.30;;
76675;SDS011;69204;55.350;36.906;2023-06-14T20:30:18;48.03;;;21.77;;
76675;SDS011;69204;55.350;36.906;2023-06-14T20:35:19;53.00;;;21.00;;
76675;SDS011;69204;55.350;36.906;2023-06-14T20:40:23;39.80;;;17.90;;
76675;SDS011;69204;55.350;36.906;2023-06-14T20:45:25;38.85;;;18.10;;
76675;SDS011;69204;55.350;36.906;2023-06-14T20:50:26;38.75;;;17.88;;
76675;SDS011;69204;55.350;36.906;2023-06-14T20:55:27;40.75;;;19.08;;
76675;SDS011;69204;55.350;36.906;2023-06-14T21:00:28;36.57;;;18.37;;
76675;SDS011;69204;55.350;36.906;2023-06-14T21:05:30;32.55;;;16.65;;
76675;SDS011;69204;55.350;36.906;2023-06-14T21:10:31;37.05;;;17.25;;
76675;SDS011;69204;55.350;36.906;2023-06-14T21:15:32;33.70;;;17.00;;
76675;SDS011;69204;55.350;36.906;2023-06-14T21:20:33;35.00;;;17.75;;
76675;SDS011;69204;55.350;36.906;2023-06-14T21:25:34;44.97;;;21.87;;
76675;SDS011;69204;55.350;36.906;2023-06-14T21:30:36;47.47;;;19.27;;
76675;SDS011;69204;55.350;36.906;2023-06-14T21:35:37;36.33;;;18.33;;
76675;SDS011;69204;55.350;36.906;2023-06-14T21:40:38;39.30;;;17.00;;
76675;SDS011;69204;55.350;36.906;2023-06-14T21:45:41;31.50;;;16.20;;
76675;SDS011;69204;55.350;36.906;2023-06-14T21:50:44;36.33;;;18.07;;
76675;SDS011;69204;55.350;36.906;2023-06-14T21:55:45;38.22;;;18.83;;
76675;SDS011;69204;55.350;36.906;2023-06-14T22:00:46;28.00;;;12.97;;
76675;SDS011;69204;55.350;36.906;2023-06-14T22:05:47;31.65;;;16.52;;
76675;SDS011;69204;55.350;36.906;2023-06-14T22:10:49;33.42;;;14.90;;
76675;SDS011;69204;55.350;36.906;2023-06-14T22:15:51;34.83;;;16.17;;
76675;SDS011;69204;55.350;36.906;2023-06-14T22:20:56;38.72;;;18.83;;
76675;SDS011;69204;55.350;36.906;2023-06-14T22:25:57;33.70;;;17.07;;
76675;SDS011;69204;55.350;36.906;2023-06-14T22:30:58;32.83;;;16.25;;
76675;SDS011;69204;55.350;36.906;2023-06-14T22:35:59;33.07;;;16.97;;
76675;SDS011;69204;55.350;36.906;2023-06-14T22:41:01;32.20;;;16.80;;
76675;SDS011;69204;55.350;36.906;2023-06-14T22:46:09;36.78;;;16.85;;
76675;SDS011;69204;55.350;36.906;2023-06-14T22:51:12;36.72;;;17.05;;
76675;SDS011;69204;55.350;36.906;2023-06-14T22:56:14;31.92;;;17.75;;
76675;SDS011;69204;55.350;36.906;2023-06-14T23:01:17;32.57;;;16.60;;
76675;SDS011;69204;55.350;36.906;2023-06-14T23:06:18;29.05;;;15.50;;
76675;SDS011;69204;55.350;36.906;2023-06-14T23:11:25;34.95;;;15.20;;
76675;SDS011;69204;55.350;36.906;2023-06-14T23:16:27;32.67;;;15.93;;
76675;SDS011;69204;55.350;36.906;2023-06-14T23:21:28;33.80;;;15.88;;
76675;SDS011;69204;55.350;36.906;2023-06-14T23:26:30;24.63;;;13.67;;
76675;SDS011;69204;55.350;36.906;2023-06-14T23:31:32;32.72;;;15.50;;
76675;SDS011;69204;55.350;36.906;2023-06-14T23:36:34;35.38;;;14.40;;
76675;SDS011;69204;55.350;36.906;2023-06-14T23:41:35;26.98;;;14.13;;
76675;SDS011;69204;55.350;36.906;2023-06-14T23:46:36;27.83;;;14.25;;
76675;SDS011;69204;55.350;36.906;2023-06-14T23:51:37;29.37;;;13.93;;
76675;SDS011;69204;55.350;36.906;2023-06-14T23:56:43;26.00;;;14.30;;
